sensor_id;sensor_type;location;lat;lon;timestamp;temperature;humidity
17671;DHT22;8954;48.694;8.940;2023-03-01T07:09:26;-0.20;99.90
17671;DHT22;8954;48.694;8.940;2023-03-01T07:11:51;0.20;99.90
17671;DHT22;8954;48.694;8.940;2023-03-01T07:14:17;0.30;99.90
17671;DHT22;8954;48.694;8.940;2023-03-01T07:16:42;0.60;99.90
17671;DHT22;8954;48.694;8.940;2023-03-01T07:19:08;1.10;99.90
17671;DHT22;8954;48.694;8.940;2023-03-01T07:21:33;1.40;99.90
17671;DHT22;8954;48.694;8.940;2023-03-01T07:23:59;1.60;99.90
17671;DHT22;8954;48.694;8.940;2023-03-01T07:26:24;1.70;99.90
17671;DHT22;8954;48.694;8.940;2023-03-01T07:28:50;1.80;99.90
17671;DHT22;8954;48.694;8.940;2023-03-01T07:31:15;2.10;99.90
17671;DHT22;8954;48.694;8.940;2023-03-01T07:33:41;2.50;99.90
17671;DHT22;8954;48.694;8.940;2023-03-01T07:36:07;2.60;99.90
17671;DHT22;8954;48.694;8.940;2023-03-01T07:38:32;3.20;99.90
17671;DHT22;8954;48.694;8.940;2023-03-01T07:41:03;4.10;99.90
17671;DHT22;8954;48.694;8.940;2023-03-01T07:43:29;4.00;99.90
17671;DHT22;8954;48.694;8.940;2023-03-01T07:45:58;4.10;99.90
17671;DHT22;8954;48.694;8.940;2023-03-01T07:48:24;4.50;99.90
17671;DHT22;8954;48.694;8.940;2023-03-01T07:50:50;4.90;99.90
17671;DHT22;8954;48.694;8.940;2023-03-01T07:53:15;5.20;99.90
17671;DHT22;8954;48.694;8.940;2023-03-01T07:55:41;5.40;99.90
17671;DHT22;8954;48.694;8.940;2023-03-01T07:58:06;5.30;99.90
17671;DHT22;8954;48.694;8.940;2023-03-01T08:00:32;5.70;99.90
17671;DHT22;8954;48.694;8.940;2023-03-01T08:03:01;5.90;99.90
17671;DHT22;8954;48.694;8.940;2023-03-01T08:05:27;5.80;99.90
17671;DHT22;8954;48.694;8.940;2023-03-01T08:07:53;5.20;99.90
17671;DHT22;8954;48.694;8.940;2023-03-01T08:10:19;5.70;99.90
17671;DHT22;8954;48.694;8.940;2023-03-01T08:12:45;6.30;99.90
17671;DHT22;8954;48.694;8.940;2023-03-01T08:15:11;6.50;99.90
17671;DHT22;8954;48.694;8.940;2023-03-01T08:17:36;6.30;99.90
17671;DHT22;8954;48.694;8.940;2023-03-01T08:20:02;6.10;99.90
17671;DHT22;8954;48.694;8.940;2023-03-01T08:22:29;5.30;99.90
17671;DHT22;8954;48.694;8.940;2023-03-01T08:24:55;5.70;99.90
17671;DHT22;8954;48.694;8.940;2023-03-01T08:27:21;5.80;99.90
17671;DHT22;8954;48.694;8.940;2023-03-01T08:29:47;6.20;99.90
17671;DHT22;8954;48.694;8.940;2023-03-01T08:32:12;6.80;99.90
17671;DHT22;8954;48.694;8.940;2023-03-01T08:34:38;6.80;99.90
17671;DHT22;8954;48.694;8.940;2023-03-01T08:37:03;7.40;99.90
17671;DHT22;8954;48.694;8.940;2023-03-01T08:39:29;7.60;99.90
17671;DHT22;8954;48.694;8.940;2023-03-01T08:41:55;7.80;99.90
17671;DHT22;8954;48.694;8.940;2023-03-01T08:44:20;9.20;98.20
17671;DHT22;8954;48.694;8.940;2023-03-01T08:46:47;9.00;97.10
17671;DHT22;8954;48.694;8.940;2023-03-01T08:49:14;8.70;97.50
17671;DHT22;8954;48.694;8.940;2023-03-01T08:51:41;9.20;96.20
17671;DHT22;8954;48.694;8.940;2023-03-01T08:54:11;8.30;97.30
17671;DHT22;8954;48.694;8.940;2023-03-01T08:56:38;9.90;95.50
17671;DHT22;8954;48.694;8.940;2023-03-01T08:59:04;10.30;94.30
17671;DHT22;8954;48.694;8.940;2023-03-01T09:01:29;11.80;91.30
17671;DHT22;8954;48.694;8.940;2023-03-01T09:03:55;11.70;90.20
17671;DHT22;8954;48.694;8.940;2023-03-01T09:06:21;11.20;90.20
17671;DHT22;8954;48.694;8.940;2023-03-01T09:08:48;11.40;89.80
17671;DHT22;8954;48.694;8.940;2023-03-01T09:11:19;12.90;85.40
17671;DHT22;8954;48.694;8.940;2023-03-01T09:13:46;12.20;81.40
17671;DHT22;8954;48.694;8.940;2023-03-01T09:16:14;11.60;82.40
17671;DHT22;8954;48.694;8.940;2023-03-01T09:18:40;11.50;83.00
17671;DHT22;8954;48.694;8.940;2023-03-01T09:21:08;11.80;82.40
17671;DHT22;8954;48.694;8.940;2023-03-01T09:23:35;11.10;81.20
17671;DHT22;8954;48.694;8.940;2023-03-01T09:26:06;10.60;83.40
17671;DHT22;8954;48.694;8.940;2023-03-01T09:28:32;10.50;85.00
17671;DHT22;8954;48.694;8.940;2023-03-01T09:30:59;11.50;83.50
17671;DHT22;8954;48.694;8.940;2023-03-01T09:33:25;11.40;82.00
17671;DHT22;8954;48.694;8.940;2023-03-01T09:36:05;12.10;80.00
17671;DHT22;8954;48.694;8.940;2023-03-01T09:38:32;11.60;80.70
17671;DHT22;8954;48.694;8.940;2023-03-01T09:40:59;10.90;81.10
17671;DHT22;8954;48.694;8.940;2023-03-01T09:43:41;10.80;82.10
17671;DHT22;8954;48.694;8.940;2023-03-01T09:46:12;11.30;82.10
17671;DHT22;8954;48.694;8.940;2023-03-01T09:48:44;12.60;78.50
17671;DHT22;8954;48.694;8.940;2023-03-01T09:51:29;12.30;79.20
17671;DHT22;8954;48.694;8.940;2023-03-01T09:53:58;12.40;80.10
17671;DHT22;8954;48.694;8.940;2023-03-01T09:56:41;12.30;77.50
17671;DHT22;8954;48.694;8.940;2023-03-01T09:59:27;12.40;78.30
17671;DHT22;8954;48.694;8.940;2023-03-01T10:04:54;14.00;74.30
17671;DHT22;8954;48.694;8.940;2023-03-01T10:07:43;13.50;73.50
17671;DHT22;8954;48.694;8.940;2023-03-01T10:10:43;12.70;75.70
17671;DHT22;8954;48.694;8.940;2023-03-01T10:13:27;12.80;75.60
17671;DHT22;8954;48.694;8.940;2023-03-01T10:16:27;13.10;75.10
17671;DHT22;8954;48.694;8.940;2023-03-01T10:18:59;14.30;72.60
17671;DHT22;8954;48.694;8.940;2023-03-01T10:21:26;14.10;71.50
17671;DHT22;8954;48.694;8.940;2023-03-01T10:23:53;13.90;73.20
17671;DHT22;8954;48.694;8.940;2023-03-01T10:29:10;14.10;71.50
17671;DHT22;8954;48.694;8.940;2023-03-01T10:31:42;14.20;70.90
17671;DHT22;8954;48.694;8.940;2023-03-01T10:34:29;14.60;70.60
17671;DHT22;8954;48.694;8.940;2023-03-01T10:37:14;14.80;69.20
17671;DHT22;8954;48.694;8.940;2023-03-01T10:42:47;14.80;67.80
17671;DHT22;8954;48.694;8.940;2023-03-01T10:48:19;15.00;68.20
17671;DHT22;8954;48.694;8.940;2023-03-01T10:50:48;15.30;67.60
17671;DHT22;8954;48.694;8.940;2023-03-01T10:53:26;15.30;66.80
17671;DHT22;8954;48.694;8.940;2023-03-01T10:56:09;15.80;65.40
17671;DHT22;8954;48.694;8.940;2023-03-01T10:58:37;14.80;66.50
17671;DHT22;8954;48.694;8.940;2023-03-01T11:01:25;15.60;65.50
17671;DHT22;8954;48.694;8.940;2023-03-01T11:06:33;16.30;64.50
17671;DHT22;8954;48.694;8.940;2023-03-01T11:09:17;15.70;64.40
17671;DHT22;8954;48.694;8.940;2023-03-01T11:11:45;15.20;65.10
17671;DHT22;8954;48.694;8.940;2023-03-01T11:14:19;15.30;66.10
17671;DHT22;8954;48.694;8.940;2023-03-01T11:16:48;15.50;64.00
17671;DHT22;8954;48.694;8.940;2023-03-01T11:19:18;15.60;64.70
17671;DHT22;8954;48.694;8.940;2023-03-01T11:21:55;15.60;63.50
17671;DHT22;8954;48.694;8.940;2023-03-01T11:24:38;15.90;64.80
17671;DHT22;8954;48.694;8.940;2023-03-01T11:27:24;16.80;62.10
17671;DHT22;8954;48.694;8.940;2023-03-01T11:32:47;15.40;64.90
17671;DHT22;8954;48.694;8.940;2023-03-01T11:35:21;15.90;63.70
17671;DHT22;8954;48.694;8.940;2023-03-01T11:40:46;16.30;62.30
17671;DHT22;8954;48.694;8.940;2023-03-01T11:51:02;16.60;61.50
17671;DHT22;8954;48.694;8.940;2023-03-01T12:01:46;18.50;57.10
17671;DHT22;8954;48.694;8.940;2023-03-01T12:04:26;17.40;58.60
17671;DHT22;8954;48.694;8.940;2023-03-01T12:07:00;17.90;58.00
17671;DHT22;8954;48.694;8.940;2023-03-01T12:30:09;18.10;58.20
17671;DHT22;8954;48.694;8.940;2023-03-01T12:41:11;18.50;57.10
17671;DHT22;8954;48.694;8.940;2023-03-01T12:43:47;18.80;56.30
17671;DHT22;8954;48.694;8.940;2023-03-01T12:51:30;17.80;58.30
17671;DHT22;8954;48.694;8.940;2023-03-01T12:53:57;18.10;57.80
17671;DHT22;8954;48.694;8.940;2023-03-01T12:56:27;17.70;57.50
17671;DHT22;8954;48.694;8.940;2023-03-01T13:01:55;18.80;56.70
17671;DHT22;8954;48.694;8.940;2023-03-01T13:04:29;19.40;55.60
17671;DHT22;8954;48.694;8.940;2023-03-01T13:13:00;20.10;54.40
17671;DHT22;8954;48.694;8.940;2023-03-01T13:15:32;19.90;54.00
17671;DHT22;8954;48.694;8.940;2023-03-01T13:20:55;19.20;55.60
17671;DHT22;8954;48.694;8.940;2023-03-01T13:26:01;19.40;55.40
17671;DHT22;8954;48.694;8.940;2023-03-01T13:31:00;18.40;56.40
17671;DHT22;8954;48.694;8.940;2023-03-01T13:35:53;17.00;59.50
17671;DHT22;8954;48.694;8.940;2023-03-01T13:38:47;18.40;57.90
17671;DHT22;8954;48.694;8.940;2023-03-01T13:41:15;19.60;55.50
17671;DHT22;8954;48.694;8.940;2023-03-01T13:43:43;19.20;55.60
17671;DHT22;8954;48.694;8.940;2023-03-01T13:46:18;20.20;54.50
17671;DHT22;8954;48.694;8.940;2023-03-01T13:48:49;19.00;56.70
17671;DHT22;8954;48.694;8.940;2023-03-01T13:51:15;18.50;56.70
17671;DHT22;8954;48.694;8.940;2023-03-01T13:53:44;18.10;56.80
17671;DHT22;8954;48.694;8.940;2023-03-01T13:56:36;16.40;60.30
17671;DHT22;8954;48.694;8.940;2023-03-01T13:59:14;16.80;59.40
17671;DHT22;8954;48.694;8.940;2023-03-01T14:01:40;16.70;59.00
17671;DHT22;8954;48.694;8.940;2023-03-01T14:04:22;15.50;61.60
17671;DHT22;8954;48.694;8.940;2023-03-01T14:06:48;16.50;61.80
17671;DHT22;8954;48.694;8.940;2023-03-01T14:09:21;17.00;59.50
17671;DHT22;8954;48.694;8.940;2023-03-01T14:14:48;15.00;63.20
17671;DHT22;8954;48.694;8.940;2023-03-01T14:20:02;15.10;63.20
17671;DHT22;8954;48.694;8.940;2023-03-01T14:22:34;14.20;65.50
17671;DHT22;8954;48.694;8.940;2023-03-01T14:25:05;13.70;67.20
17671;DHT22;8954;48.694;8.940;2023-03-01T14:27:37;13.80;66.70
17671;DHT22;8954;48.694;8.940;2023-03-01T14:30:13;15.10;64.00
17671;DHT22;8954;48.694;8.940;2023-03-01T14:32:40;14.40;65.30
17671;DHT22;8954;48.694;8.940;2023-03-01T14:35:27;13.40;66.40
17671;DHT22;8954;48.694;8.940;2023-03-01T14:37:53;11.70;71.20
17671;DHT22;8954;48.694;8.940;2023-03-01T14:40:34;10.60;74.50
17671;DHT22;8954;48.694;8.940;2023-03-01T14:43:02;9.70;77.50
17671;DHT22;8954;48.694;8.940;2023-03-01T14:45:36;9.30;79.20
17671;DHT22;8954;48.694;8.940;2023-03-01T14:48:03;9.10;79.50
17671;DHT22;8954;48.694;8.940;2023-03-01T14:50:32;8.80;80.60
17671;DHT22;8954;48.694;8.940;2023-03-01T14:53:03;8.70;80.80
17671;DHT22;8954;48.694;8.940;2023-03-01T14:55:36;8.50;82.20
17671;DHT22;8954;48.694;8.940;2023-03-01T14:58:04;8.60;81.90
17671;DHT22;8954;48.694;8.940;2023-03-01T15:00:33;8.50;82.00
17671;DHT22;8954;48.694;8.940;2023-03-01T15:03:13;8.30;83.10
17671;DHT22;8954;48.694;8.940;2023-03-01T15:05:41;8.30;82.70
17671;DHT22;8954;48.694;8.940;2023-03-01T15:08:34;8.30;82.70
17671;DHT22;8954;48.694;8.940;2023-03-01T15:11:04;8.10;83.60
17671;DHT22;8954;48.694;8.940;2023-03-01T15:13:32;7.80;85.30
17671;DHT22;8954;48.694;8.940;2023-03-01T15:16:06;7.60;85.50
17671;DHT22;8954;48.694;8.940;2023-03-01T15:18:33;7.60;86.60
17671;DHT22;8954;48.694;8.940;2023-03-01T15:21:15;7.50;86.30
17671;DHT22;8954;48.694;8.940;2023-03-01T15:23:41;7.60;86.50
17671;DHT22;8954;48.694;8.940;2023-03-01T15:26:22;7.50;86.90
17671;DHT22;8954;48.694;8.940;2023-03-01T15:28:51;7.50;86.90
17671;DHT22;8954;48.694;8.940;2023-03-01T15:31:23;7.40;87.00
17671;DHT22;8954;48.694;8.940;2023-03-01T15:33:50;7.20;88.00
17671;DHT22;8954;48.694;8.940;2023-03-01T15:38:59;7.10;89.30
17671;DHT22;8954;48.694;8.940;2023-03-01T15:41:31;7.10;89.80
17671;DHT22;8954;48.694;8.940;2023-03-01T15:43:59;6.90;89.80
17671;DHT22;8954;48.694;8.940;2023-03-01T15:49:02;6.80;90.30
17671;DHT22;8954;48.694;8.940;2023-03-01T15:51:36;6.80;90.30
17671;DHT22;8954;48.694;8.940;2023-03-01T15:54:18;6.70;90.30
17671;DHT22;8954;48.694;8.940;2023-03-01T15:56:45;6.70;90.50
17671;DHT22;8954;48.694;8.940;2023-03-01T15:59:11;6.60;90.70
17671;DHT22;8954;48.694;8.940;2023-03-01T16:01:38;6.50;90.90
17671;DHT22;8954;48.694;8.940;2023-03-01T16:04:04;6.40;91.20
17671;DHT22;8954;48.694;8.940;2023-03-01T16:06:30;6.40;91.40
17671;DHT22;8954;48.694;8.940;2023-03-01T16:08:55;6.20;91.40
17671;DHT22;8954;48.694;8.940;2023-03-01T16:11:21;6.10;91.70
17671;DHT22;8954;48.694;8.940;2023-03-01T16:13:48;6.10;92.00
17671;DHT22;8954;48.694;8.940;2023-03-01T16:16:14;6.00;92.10
17671;DHT22;8954;48.694;8.940;2023-03-01T16:18:47;5.90;92.10
17671;DHT22;8954;48.694;8.940;2023-03-01T16:21:20;5.80;92.50
17671;DHT22;8954;48.694;8.940;2023-03-01T16:23:46;5.70;92.70
17671;DHT22;8954;48.694;8.940;2023-03-01T16:26:13;5.70;93.00
17671;DHT22;8954;48.694;8.940;2023-03-01T16:28:40;5.70;93.00
17671;DHT22;8954;48.694;8.940;2023-03-01T16:31:06;5.50;93.20
17671;DHT22;8954;48.694;8.940;2023-03-01T16:33:31;5.50;93.20
17671;DHT22;8954;48.694;8.940;2023-03-01T16:35:59;5.50;93.20
17671;DHT22;8954;48.694;8.940;2023-03-01T16:38:27;5.40;93.60
17671;DHT22;8954;48.694;8.940;2023-03-01T16:40:53;5.30;93.80
17671;DHT22;8954;48.694;8.940;2023-03-01T16:43:19;5.30;94.00
17671;DHT22;8954;48.694;8.940;2023-03-01T16:45:44;5.20;94.00
17671;DHT22;8954;48.694;8.940;2023-03-01T16:48:10;5.20;94.20
17671;DHT22;8954;48.694;8.940;2023-03-01T16:50:36;5.10;94.20
